<?xml version="1.0" encoding="UTF-8" standalone="no" ?>
<gpx xmlns="http://www.topografix.com/GPX/1/1" xmlns:xsi="http://www.w3.org/2001/XMLSchema-instance" xsi:schemaLocation="http://www.topografix.com/GPX/1/1 http://www.topografix.com/GPX/1/1/gpx.xsd" version="1.1" creator="VisuGPX - https://www.visugpx.com">
  <metadata>
    <name>Prepa MegaRando</name>
    <desc><![CDATA[Total: 4.9km]]></desc>
  </metadata>
  <trk>
    <name><![CDATA[NewTrack]]></name>
    <desc><![CDATA[Total: 8.0km]]></desc>
    <extensions>
      <line xmlns="http://www.topografix.com/GPX/gpx_style/0/2">
        <color>888800</color>
        <width>4</width>
      </line>
    </extensions>
    <trkseg>
      <trkpt lat="44.6232" lon="-0.10696">
        <ele>26.89</ele>
        <time>2015-02-20T15:22:44Z</time>
      </trkpt>
      <trkpt lat="44.62247" lon="-0.10733">
        <ele>22.28</ele>
        <time>2015-02-20T15:23:36Z</time>
      </trkpt>
      <trkpt lat="44.62171" lon="-0.10776">
        <ele>23.61</ele>
        <time>2015-02-20T15:24:30Z</time>
      </trkpt>
      <trkpt lat="44.62096" lon="-0.10833">
        <ele>33.16</ele>
        <time>2015-02-20T15:25:28Z</time>
      </trkpt>
      <trkpt lat="44.62107" lon="-0.10985">
        <ele>40.52</ele>
        <time>2015-02-20T15:26:40Z</time>
      </trkpt>
      <trkpt lat="44.62099" lon="-0.11119">
        <ele>45.19</ele>
        <time>2015-02-20T15:27:45Z</time>
      </trkpt>
      <trkpt lat="44.62095" lon="-0.11154">
        <ele>46.09</ele>
        <time>2015-02-20T15:28:01Z</time>
      </trkpt>
      <trkpt lat="44.62087" lon="-0.11166">
        <ele>47.44</ele>
        <time>2015-02-20T15:28:10Z</time>
      </trkpt>
      <trkpt lat="44.62075" lon="-0.11173">
        <ele>48.61</ele>
        <time>2015-02-20T15:28:18Z</time>
      </trkpt>
      <trkpt lat="44.62099" lon="-0.11251">
        <ele>47.97</ele>
        <time>2015-02-20T15:28:58Z</time>
      </trkpt>
      <trkpt lat="44.62103" lon="-0.11286">
        <ele>46.81</ele>
        <time>2015-02-20T15:29:15Z</time>
      </trkpt>
      <trkpt lat="44.62101" lon="-0.11332">
        <ele>46.63</ele>
        <time>2015-02-20T15:29:37Z</time>
      </trkpt>
      <trkpt lat="44.62084" lon="-0.11393">
        <ele>49.89</ele>
        <time>2015-02-20T15:30:08Z</time>
      </trkpt>
      <trkpt lat="44.62061" lon="-0.11453">
        <ele>50.56</ele>
        <time>2015-02-20T15:30:41Z</time>
      </trkpt>
      <trkpt lat="44.62057" lon="-0.11516">
        <ele>49.8</ele>
        <time>2015-02-20T15:31:11Z</time>
      </trkpt>
      <trkpt lat="44.62047" lon="-0.11552">
        <ele>50.21</ele>
        <time>2015-02-20T15:31:29Z</time>
      </trkpt>
      <trkpt lat="44.62045" lon="-0.11587">
        <ele>49.97</ele>
        <time>2015-02-20T15:31:46Z</time>
      </trkpt>
      <trkpt lat="44.62037" lon="-0.11791">
        <ele>50.66</ele>
        <time>2015-02-20T15:33:23Z</time>
      </trkpt>
      <trkpt lat="44.6204" lon="-0.12079">
        <ele>50.61</ele>
        <time>2015-02-20T15:35:40Z</time>
      </trkpt>
      <trkpt lat="44.62043" lon="-0.12099">
        <ele>50.33</ele>
        <time>2015-02-20T15:35:50Z</time>
      </trkpt>
      <trkpt lat="44.62049" lon="-0.12116">
        <ele>49.89</ele>
        <time>2015-02-20T15:35:59Z</time>
      </trkpt>
      <trkpt lat="44.62088" lon="-0.12131">
        <ele>47.77</ele>
        <time>2015-02-20T15:36:26Z</time>
      </trkpt>
      <trkpt lat="44.62135" lon="-0.12247">
        <ele>50.25</ele>
        <time>2015-02-20T15:37:30Z</time>
      </trkpt>
      <trkpt lat="44.62149" lon="-0.12329">
        <ele>50.41</ele>
        <time>2015-02-20T15:38:10Z</time>
      </trkpt>
      <trkpt lat="44.62165" lon="-0.12398">
        <ele>52.35</ele>
        <time>2015-02-20T15:38:44Z</time>
      </trkpt>
      <trkpt lat="44.62199" lon="-0.12517">
        <ele>50.67</ele>
        <time>2015-02-20T15:39:45Z</time>
      </trkpt>
      <trkpt lat="44.62224" lon="-0.12626">
        <ele>48.37</ele>
        <time>2015-02-20T15:40:40Z</time>
      </trkpt>
      <trkpt lat="44.62224" lon="-0.1267">
        <ele>48.01</ele>
        <time>2015-02-20T15:41:01Z</time>
      </trkpt>
      <trkpt lat="44.62188" lon="-0.12831">
        <ele>53.68</ele>
        <time>2015-02-20T15:42:21Z</time>
      </trkpt>
      <trkpt lat="44.62116" lon="-0.12989">
        <ele>69.2</ele>
        <time>2015-02-20T15:43:51Z</time>
      </trkpt>
      <trkpt lat="44.62056" lon="-0.13145">
        <ele>67.23</ele>
        <time>2015-02-20T15:45:15Z</time>
      </trkpt>
      <trkpt lat="44.62029" lon="-0.1323">
        <ele>62.23</ele>
        <time>2015-02-20T15:46:00Z</time>
      </trkpt>
      <trkpt lat="44.6202" lon="-0.13282">
        <ele>60.86</ele>
        <time>2015-02-20T15:46:25Z</time>
      </trkpt>
      <trkpt lat="44.62008" lon="-0.13338">
        <ele>59.93</ele>
        <time>2015-02-20T15:46:53Z</time>
      </trkpt>
      <trkpt lat="44.61992" lon="-0.13366">
        <ele>59.15</ele>
        <time>2015-02-20T15:47:10Z</time>
      </trkpt>
      <trkpt lat="44.61972" lon="-0.13386">
        <ele>59.11</ele>
        <time>2015-02-20T15:47:27Z</time>
      </trkpt>
      <trkpt lat="44.61898" lon="-0.1345">
        <ele>59.03</ele>
        <time>2015-02-20T15:48:25Z</time>
      </trkpt>
      <trkpt lat="44.61925" lon="-0.13567">
        <ele>55.03</ele>
        <time>2015-02-20T15:49:23Z</time>
      </trkpt>
      <trkpt lat="44.6195" lon="-0.13646">
        <ele>57.36</ele>
        <time>2015-02-20T15:50:04Z</time>
      </trkpt>
      <trkpt lat="44.6197" lon="-0.13721">
        <ele>63.02</ele>
        <time>2015-02-20T15:50:42Z</time>
      </trkpt>
      <trkpt lat="44.61999" lon="-0.1394">
        <ele>69.49</ele>
        <time>2015-02-20T15:52:29Z</time>
      </trkpt>
      <trkpt lat="44.62026" lon="-0.14148">
        <ele>69.3</ele>
        <time>2015-02-20T15:54:10Z</time>
      </trkpt>
      <trkpt lat="44.62068" lon="-0.14114">
        <ele>67.38</ele>
        <time>2015-02-20T15:54:42Z</time>
      </trkpt>
      <trkpt lat="44.621" lon="-0.14098">
        <ele>67.45</ele>
        <time>2015-02-20T15:55:05Z</time>
      </trkpt>
      <trkpt lat="44.62134" lon="-0.14097">
        <ele>68.43</ele>
        <time>2015-02-20T15:55:27Z</time>
      </trkpt>
      <trkpt lat="44.62199" lon="-0.14108">
        <ele>69.59</ele>
        <time>2015-02-20T15:56:11Z</time>
      </trkpt>
      <trkpt lat="44.62299" lon="-0.14159">
        <ele>66.61</ele>
        <time>2015-02-20T15:57:22Z</time>
      </trkpt>
      <trkpt lat="44.62383" lon="-0.14159">
        <ele>65.09</ele>
        <time>2015-02-20T15:58:18Z</time>
      </trkpt>
      <trkpt lat="44.625" lon="-0.14195">
        <ele>55.3</ele>
        <time>2015-02-20T15:59:38Z</time>
      </trkpt>
      <trkpt lat="44.62526" lon="-0.14243">
        <ele>50.95</ele>
        <time>2015-02-20T16:00:07Z</time>
      </trkpt>
      <trkpt lat="44.62535" lon="-0.14252">
        <ele>49.83</ele>
        <time>2015-02-20T16:00:14Z</time>
      </trkpt>
      <trkpt lat="44.62546" lon="-0.14256">
        <ele>49.06</ele>
        <time>2015-02-20T16:00:22Z</time>
      </trkpt>
      <trkpt lat="44.62622" lon="-0.14252">
        <ele>48.86</ele>
        <time>2015-02-20T16:01:13Z</time>
      </trkpt>
      <trkpt lat="44.6266" lon="-0.14244">
        <ele>50.51</ele>
        <time>2015-02-20T16:01:38Z</time>
      </trkpt>
      <trkpt lat="44.62698" lon="-0.1423">
        <ele>51.14</ele>
        <time>2015-02-20T16:02:04Z</time>
      </trkpt>
      <trkpt lat="44.62646" lon="-0.14187">
        <ele>49.42</ele>
        <time>2015-02-20T16:02:45Z</time>
      </trkpt>
      <trkpt lat="44.62635" lon="-0.14169">
        <ele>49.89</ele>
        <time>2015-02-20T16:02:56Z</time>
      </trkpt>
      <trkpt lat="44.62636" lon="-0.14128">
        <ele>48.9</ele>
        <time>2015-02-20T16:03:15Z</time>
      </trkpt>
      <trkpt lat="44.62652" lon="-0.14082">
        <ele>46.9</ele>
        <time>2015-02-20T16:03:40Z</time>
      </trkpt>
      <trkpt lat="44.62647" lon="-0.14029">
        <ele>47.41</ele>
        <time>2015-02-20T16:04:05Z</time>
      </trkpt>
      <trkpt lat="44.62636" lon="-0.13987">
        <ele>47.57</ele>
        <time>2015-02-20T16:04:26Z</time>
      </trkpt>
      <trkpt lat="44.62632" lon="-0.13948">
        <ele>48.28</ele>
        <time>2015-02-20T16:04:45Z</time>
      </trkpt>
      <trkpt lat="44.62612" lon="-0.13612">
        <ele>50.73</ele>
        <time>2015-02-20T16:07:25Z</time>
      </trkpt>
      <trkpt lat="44.62621" lon="-0.13084">
        <ele>53.81</ele>
        <time>2015-02-20T16:11:37Z</time>
      </trkpt>
      <trkpt lat="44.62634" lon="-0.12927">
        <ele>53.29</ele>
        <time>2015-02-20T16:12:52Z</time>
      </trkpt>
      <trkpt lat="44.62628" lon="-0.12734">
        <ele>58.14</ele>
        <time>2015-02-20T16:14:25Z</time>
      </trkpt>
      <trkpt lat="44.62658" lon="-0.12738">
        <ele>60.67</ele>
        <time>2015-02-20T16:14:44Z</time>
      </trkpt>
      <trkpt lat="44.62701" lon="-0.12719">
        <ele>62.16</ele>
        <time>2015-02-20T16:15:15Z</time>
      </trkpt>
      <trkpt lat="44.62796" lon="-0.12677">
        <ele>65.12</ele>
        <time>2015-02-20T16:16:21Z</time>
      </trkpt>
      <trkpt lat="44.62904" lon="-0.12628">
        <ele>68.43</ele>
        <time>2015-02-20T16:17:37Z</time>
      </trkpt>
      <trkpt lat="44.62953" lon="-0.1261">
        <ele>71.05</ele>
        <time>2015-02-20T16:18:11Z</time>
      </trkpt>
      <trkpt lat="44.63031" lon="-0.12592">
        <ele>74.35</ele>
        <time>2015-02-20T16:19:04Z</time>
      </trkpt>
      <trkpt lat="44.63138" lon="-0.12536">
        <ele>82.45</ele>
        <time>2015-02-20T16:20:20Z</time>
      </trkpt>
      <trkpt lat="44.63116" lon="-0.12459">
        <ele>81.65</ele>
        <time>2015-02-20T16:20:59Z</time>
      </trkpt>
      <trkpt lat="44.6309" lon="-0.12383">
        <ele>79.73</ele>
        <time>2015-02-20T16:21:39Z</time>
      </trkpt>
      <trkpt lat="44.63053" lon="-0.12317">
        <ele>78.91</ele>
        <time>2015-02-20T16:22:19Z</time>
      </trkpt>
      <trkpt lat="44.63035" lon="-0.12267">
        <ele>78.25</ele>
        <time>2015-02-20T16:22:46Z</time>
      </trkpt>
      <trkpt lat="44.62992" lon="-0.12054">
        <ele>77.34</ele>
        <time>2015-02-20T16:24:31Z</time>
      </trkpt>
      <trkpt lat="44.62949" lon="-0.11851">
        <ele>77.89</ele>
        <time>2015-02-20T16:26:12Z</time>
      </trkpt>
      <trkpt lat="44.62932" lon="-0.11803">
        <ele>77.61</ele>
        <time>2015-02-20T16:26:38Z</time>
      </trkpt>
      <trkpt lat="44.62901" lon="-0.11739">
        <ele>75.87</ele>
        <time>2015-02-20T16:27:14Z</time>
      </trkpt>
      <trkpt lat="44.62877" lon="-0.11675">
        <ele>74.1</ele>
        <time>2015-02-20T16:27:49Z</time>
      </trkpt>
      <trkpt lat="44.62849" lon="-0.1158">
        <ele>72.73</ele>
        <time>2015-02-20T16:28:38Z</time>
      </trkpt>
      <trkpt lat="44.62852" lon="-0.11559">
        <ele>72.7</ele>
        <time>2015-02-20T16:28:48Z</time>
      </trkpt>
      <trkpt lat="44.62933" lon="-0.11481">
        <ele>72.38</ele>
        <time>2015-02-20T16:29:53Z</time>
      </trkpt>
      <trkpt lat="44.62943" lon="-0.11459">
        <ele>71.37</ele>
        <time>2015-02-20T16:30:06Z</time>
      </trkpt>
      <trkpt lat="44.62943" lon="-0.11442">
        <ele>70.57</ele>
        <time>2015-02-20T16:30:14Z</time>
      </trkpt>
      <trkpt lat="44.62932" lon="-0.11363">
        <ele>67.82</ele>
        <time>2015-02-20T16:30:52Z</time>
      </trkpt>
      <trkpt lat="44.62921" lon="-0.113">
        <ele>64.61</ele>
        <time>2015-02-20T16:31:23Z</time>
      </trkpt>
      <trkpt lat="44.62901" lon="-0.11247">
        <ele>60.78</ele>
        <time>2015-02-20T16:31:52Z</time>
      </trkpt>
      <trkpt lat="44.62876" lon="-0.11199">
        <ele>57.03</ele>
        <time>2015-02-20T16:32:20Z</time>
      </trkpt>
      <trkpt lat="44.6285" lon="-0.11113">
        <ele>50.98</ele>
        <time>2015-02-20T16:33:04Z</time>
      </trkpt>
      <trkpt lat="44.62849" lon="-0.11058">
        <ele>48.03</ele>
        <time>2015-02-20T16:33:31Z</time>
      </trkpt>
      <trkpt lat="44.62853" lon="-0.11019">
        <ele>46.28</ele>
        <time>2015-02-20T16:33:50Z</time>
      </trkpt>
      <trkpt lat="44.62849" lon="-0.10984">
        <ele>44.49</ele>
        <time>2015-02-20T16:34:06Z</time>
      </trkpt>
      <trkpt lat="44.62836" lon="-0.10969">
        <ele>43.23</ele>
        <time>2015-02-20T16:34:17Z</time>
      </trkpt>
      <trkpt lat="44.62819" lon="-0.10966">
        <ele>44.34</ele>
        <time>2015-02-20T16:34:29Z</time>
      </trkpt>
      <trkpt lat="44.62798" lon="-0.10944">
        <ele>45.04</ele>
        <time>2015-02-20T16:34:47Z</time>
      </trkpt>
      <trkpt lat="44.62748" lon="-0.10844">
        <ele>35</ele>
        <time>2015-02-20T16:35:45Z</time>
      </trkpt>
      <trkpt lat="44.62713" lon="-0.10702">
        <ele>23.36</ele>
        <time>2015-02-20T16:36:57Z</time>
      </trkpt>
      <trkpt lat="44.62577" lon="-0.107">
        <ele>23.74</ele>
        <time>2015-02-20T16:38:28Z</time>
      </trkpt>
      <trkpt lat="44.62554" lon="-0.10691">
        <ele>25.63</ele>
        <time>2015-02-20T16:38:44Z</time>
      </trkpt>
      <trkpt lat="44.62512" lon="-0.1065">
        <ele>26.15</ele>
        <time>2015-02-20T16:39:18Z</time>
      </trkpt>
      <trkpt lat="44.62471" lon="-0.10614">
        <ele>26.3</ele>
        <time>2015-02-20T16:39:50Z</time>
      </trkpt>
      <trkpt lat="44.62421" lon="-0.10579">
        <ele>24.69</ele>
        <time>2015-02-20T16:40:28Z</time>
      </trkpt>
      <trkpt lat="44.62384" lon="-0.10562">
        <ele>22.8</ele>
        <time>2015-02-20T16:40:53Z</time>
      </trkpt>
      <trkpt lat="44.62351" lon="-0.10563">
        <ele>21.65</ele>
        <time>2015-02-20T16:41:16Z</time>
      </trkpt>
      <trkpt lat="44.62333" lon="-0.10572">
        <ele>21.46</ele>
        <time>2015-02-20T16:41:28Z</time>
      </trkpt>
      <trkpt lat="44.62321" lon="-0.10589">
        <ele>22.3</ele>
        <time>2015-02-20T16:41:40Z</time>
      </trkpt>
      <trkpt lat="44.62318" lon="-0.10619">
        <ele>23.83</ele>
        <time>2015-02-20T16:41:54Z</time>
      </trkpt>
      <trkpt lat="44.62322" lon="-0.10658">
        <ele>25.99</ele>
        <time>2015-02-20T16:42:13Z</time>
      </trkpt>
      <trkpt lat="44.62325" lon="-0.1069">
        <ele>27.07</ele>
        <time>2015-02-20T16:42:28Z</time>
      </trkpt>
      <trkpt lat="44.62327" lon="-0.10704">
        <ele>27.48</ele>
        <time>2015-02-20T16:42:35Z</time>
      </trkpt>
    </trkseg>
  </trk>
</gpx>